createdAt,value
2023-01-09T00:00:51.539Z,96743.09
2023-01-09T00:04:39.533Z,96744.82
2023-01-09T00:08:27.311Z,96748.21
2023-01-09T00:12:14.736Z,96747.16
2023-01-09T00:15:56.571Z,96749.09
2023-01-09T00:19:44.908Z,96750.09
2023-01-09T00:31:58.325Z,96733.63
2023-01-09T00:35:46.437Z,96722.59
2023-01-09T00:39:34.167Z,96712.09
2023-01-09T00:43:21.627Z,96704.68
2023-01-09T00:47:40.268Z,96695.95
2023-01-09T00:51:29.685Z,96686.05
2023-01-09T00:55:19.131Z,96699.52
2023-01-09T00:59:08.372Z,96693.58
2023-01-09T01:02:58.319Z,96690.07
2023-01-09T01:06:45.729Z,96682.61
2023-01-09T01:10:36.110Z,96680.92
2023-01-09T01:29:51.909Z,96683.36
2023-01-09T01:33:41.014Z,96674.17
2023-01-09T01:37:29.962Z,96676.90
2023-01-09T01:41:19.135Z,96672.66
2023-01-09T01:45:06.789Z,96676.61
2023-01-09T01:48:55.818Z,96675.00
2023-01-09T02:04:54.747Z,96641.94
2023-01-09T02:08:43.697Z,96635.38
2023-01-09T02:12:33.135Z,96629.15
2023-01-09T02:16:28.247Z,96640.70
2023-01-09T02:20:21.908Z,96643.77
2023-01-09T02:24:26.143Z,96635.63
2023-01-09T02:28:30.365Z,96626.43
2023-01-09T02:41:36.118Z,96590.14
2023-01-09T02:45:23.793Z,96597.50
2023-01-09T02:50:00.913Z,96598.89
2023-01-09T02:54:16.278Z,96601.82
2023-01-09T02:58:12.765Z,96611.82
2023-01-09T03:02:08.234Z,96613.73
2023-01-09T03:14:26.996Z,96590.58
2023-01-09T03:18:16.295Z,96583.71
2023-01-09T03:22:05.175Z,96579.50
2023-01-09T03:25:54.202Z,96565.30
2023-01-09T03:41:34.213Z,96524.02
2023-01-09T03:45:23.219Z,96516.35
2023-01-09T03:49:11.309Z,96516.77
2023-01-09T03:53:00.273Z,96520.59
2023-01-09T03:56:49.384Z,96515.89
2023-01-09T04:00:38.469Z,96511.71
2023-01-09T04:04:27.878Z,96509.05
2023-01-09T04:08:16.988Z,96503.16
2023-01-09T04:12:06.938Z,96496.70
2023-01-09T04:15:56.935Z,96496.84
2023-01-09T04:19:46.505Z,96486.23
2023-01-09T04:35:30.535Z,96481.92
2023-01-09T04:39:19.440Z,96479.21
2023-01-09T04:43:08.491Z,96479.19
2023-01-09T04:46:58.243Z,96479.66
2023-01-09T04:50:48.993Z,96470.41
2023-01-09T04:54:29.281Z,96472.73
2023-01-09T04:58:18.784Z,96469.77
2023-01-09T05:02:07.864Z,96476.36
2023-01-09T05:05:57.745Z,96464.83
2023-01-09T05:09:47.777Z,96454.92
2023-01-09T05:13:37.640Z,96440.48
2023-01-09T05:17:26.567Z,96441.58
2023-01-09T05:21:14.958Z,96439.19
2023-01-09T05:25:05.312Z,96442.11
2023-01-09T05:28:59.479Z,96436.70
2023-01-09T05:32:41.733Z,96432.50
2023-01-09T05:35:48.545Z,96420.33
2023-01-09T05:39:36.059Z,96412.91
2023-01-09T05:42:57.226Z,96403.96
2023-01-09T05:46:47.212Z,96406.69
2023-01-09T05:50:35.902Z,96405.09
2023-01-09T05:54:24.579Z,96406.54
2023-01-09T05:58:12.483Z,96396.99
2023-01-09T06:02:01.503Z,96396.13
2023-01-09T06:05:50.760Z,96395.64
2023-01-09T06:09:40.017Z,96385.80
2023-01-09T06:13:29.156Z,96391.77
2023-01-09T06:17:18.120Z,96384.27
2023-01-09T06:21:06.876Z,96373.54
2023-01-09T06:24:55.961Z,96367.29
2023-01-09T06:28:45.266Z,96362.92
2023-01-09T06:32:19.932Z,96374.52
2023-01-09T06:36:09.084Z,96381.95
2023-01-09T06:39:49.361Z,96390.60
2023-01-09T06:43:28.007Z,96407.61
2023-01-09T06:46:55.928Z,96411.77
2023-01-09T06:50:07.162Z,96408.59
2023-01-09T06:53:56.183Z,96414.73
2023-01-09T06:56:58.067Z,96418.48
2023-01-09T06:59:41.854Z,96417.61
2023-01-09T07:03:05.834Z,96419.39
2023-01-09T07:06:28.490Z,96419.51
2023-01-09T07:09:19.790Z,96416.96
2023-01-09T07:12:22.884Z,96424.20
2023-01-09T07:15:11.394Z,96423.55
2023-01-09T07:18:53.159Z,96423.09
2023-01-09T07:22:29.267Z,96423.14
2023-01-09T07:26:03.714Z,96429.48
2023-01-09T07:31:07.826Z,96435.44
2023-01-09T07:34:03.422Z,96438.59
2023-01-09T07:37:25.561Z,96435.15
2023-01-09T07:41:14.606Z,96440.66
2023-01-09T07:44:53.915Z,96437.41
2023-01-09T07:47:52.390Z,96438.59
2023-01-09T07:50:39.156Z,96430.73
2023-01-09T07:53:15.268Z,96432.27
2023-01-09T07:56:35.320Z,96425.71
2023-01-09T08:00:24.496Z,96420.73
2023-01-09T08:03:34.680Z,96420.04
2023-01-09T08:07:23.955Z,96418.48
2023-01-09T08:11:13.097Z,96413.49
2023-01-09T08:14:52.999Z,96414.23
2023-01-09T08:17:52.022Z,96418.11
2023-01-09T08:21:21.410Z,96409.89
2023-01-09T08:28:25.512Z,96413.59
2023-01-09T08:31:35.708Z,96417.75
2023-01-09T08:52:59.969Z,96416.97
2023-01-09T08:56:27.060Z,96423.80
2023-01-09T09:00:17.994Z,96421.01
2023-01-09T09:04:00.357Z,96425.43
2023-01-09T09:07:32.786Z,96422.79
2023-01-09T09:11:21.704Z,96427.48
2023-01-09T09:14:35.066Z,96424.23
2023-01-09T09:17:54.417Z,96420.33
2023-01-09T09:21:17.811Z,96423.02
2023-01-09T09:24:40.789Z,96408.07
2023-01-09T09:28:17.884Z,96400.53
2023-01-09T09:32:00.904Z,96392.15
2023-01-09T09:35:22.777Z,96397.30
2023-01-09T09:38:48.187Z,96388.84
2023-01-09T09:42:54.165Z,96386.50
2023-01-09T09:46:32.998Z,96378.99
2023-01-09T09:53:50.327Z,96375.67
2023-01-09T09:57:30.585Z,96377.65
2023-01-09T10:01:12.255Z,96379.66
2023-01-09T10:04:32.197Z,96377.19
2023-01-09T10:08:16.094Z,96373.55
2023-01-09T10:12:01.004Z,96363.59
2023-01-09T10:15:44.062Z,96361.21
2023-01-09T10:19:29.886Z,96361.20
2023-01-09T10:22:56.911Z,96350.95
2023-01-09T10:26:19.178Z,96350.61
2023-01-09T10:37:43.836Z,96352.08
2023-01-09T10:40:34.085Z,96351.76
2023-01-09T10:43:48.721Z,96351.05
2023-01-09T10:46:28.330Z,96348.58
2023-01-09T10:49:32.445Z,96344.02
2023-01-09T10:53:00.312Z,96346.90
2023-01-09T10:56:41.589Z,96338.33
2023-01-09T11:00:10.575Z,96335.47
2023-01-09T11:03:20.040Z,96325.20
2023-01-09T11:07:21.267Z,96323.77
2023-01-09T11:10:25.804Z,96327.23
2023-01-09T11:20:55.056Z,96341.21
2023-01-09T11:32:53.661Z,96351.64
2023-01-09T11:36:24.356Z,96348.59
2023-01-09T11:39:50.219Z,96352.23
2023-01-09T11:43:12.585Z,96357.23
2023-01-09T11:46:33.548Z,96353.77
2023-01-09T11:50:01.580Z,96353.36
2023-01-09T11:53:51.672Z,96345.63
2023-01-09T11:57:19.399Z,96350.77
2023-01-09T12:08:59.861Z,96342.59
2023-01-09T12:12:43.784Z,96337.00
2023-01-09T12:16:26.366Z,96333.12
2023-01-09T12:32:20.082Z,96351.58
2023-01-09T12:36:21.412Z,96354.45
2023-01-09T12:39:44.485Z,96350.30
2023-01-09T12:43:34.673Z,96345.41
2023-01-09T12:47:09.467Z,96343.35
2023-01-09T13:02:27.586Z,96339.30
2023-01-09T13:05:57.987Z,96351.14
2023-01-09T13:09:03.185Z,96359.02
2023-01-09T13:11:38.133Z,96357.86
2023-01-09T13:15:21.749Z,96359.84
2023-01-09T13:18:42.381Z,96368.06
2023-01-09T13:22:25.763Z,96374.02
2023-01-09T14:32:47.471Z,96481.59
2023-01-09T14:36:24.614Z,96482.56
2023-01-09T14:39:48.189Z,96488.12
2023-01-09T14:42:52.321Z,96487.23
2023-01-09T14:46:41.481Z,96492.80
2023-01-09T14:50:14.427Z,96493.95
2023-01-09T14:54:09.528Z,96492.78
2023-01-09T14:57:32.566Z,96498.06
2023-01-09T15:09:37.301Z,96509.74
2023-01-09T15:13:26.485Z,96517.65
2023-01-09T15:17:15.823Z,96522.94
2023-01-09T15:33:12.619Z,96549.23
2023-01-09T15:37:06.299Z,96555.75
2023-01-09T15:40:56.615Z,96555.98
2023-01-09T15:44:38.418Z,96561.46
2023-01-09T15:52:32.659Z,96564.58
2023-01-09T15:56:21.900Z,96570.70
2023-01-09T16:00:16.658Z,96573.67
2023-01-09T16:04:07.701Z,96577.88
2023-01-09T16:23:09.894Z,96556.15
2023-01-09T16:27:02.901Z,96555.66
2023-01-09T16:31:01.212Z,96565.61
2023-01-09T16:34:51.424Z,96570.54
2023-01-09T16:54:20.249Z,96578.91
2023-01-09T16:58:09.321Z,96584.21
2023-01-09T17:01:58.489Z,96591.40
2023-01-09T17:05:47.729Z,96597.09
2023-01-09T17:09:37.257Z,96599.30
2023-01-09T17:13:27.384Z,96605.36
2023-01-09T17:17:17.592Z,96608.44
2023-01-09T17:21:07.775Z,96609.84
2023-01-09T17:24:55.796Z,96616.55
2023-01-09T17:28:54.174Z,96626.34
2023-01-09T17:32:43.243Z,96632.80
2023-01-09T18:07:06.273Z,96642.14
2023-01-09T18:10:58.219Z,96644.48
2023-01-09T18:14:48.031Z,96650.47
2023-01-09T18:18:37.351Z,96657.61
2023-01-09T18:22:26.951Z,96659.64
2023-01-09T18:26:16.216Z,96666.54
2023-01-09T18:30:05.534Z,96671.12
2023-01-09T18:33:48.709Z,96677.64
2023-01-09T18:37:38.007Z,96674.98
2023-01-09T19:01:09.977Z,96697.44
2023-01-09T19:04:56.902Z,96695.61
2023-01-09T19:08:38.406Z,96697.61
2023-01-09T19:12:26.000Z,96692.14
2023-01-09T19:17:03.762Z,96691.98
2023-01-09T19:20:51.447Z,96693.67
2023-01-09T19:24:40.246Z,96695.63
2023-01-09T19:28:30.731Z,96697.48
2023-01-09T19:32:18.593Z,96700.55
2023-01-09T19:35:56.030Z,96704.28
2023-01-09T19:39:39.354Z,96702.35
2023-01-09T19:43:28.254Z,96708.48
2023-01-09T19:47:16.557Z,96712.80
2023-01-09T19:59:10.433Z,96720.00
2023-01-09T20:02:50.362Z,96721.15
2023-01-09T20:06:36.231Z,96723.14
2023-01-09T20:10:25.664Z,96718.49
2023-01-09T20:14:16.006Z,96722.05
2023-01-09T20:18:05.540Z,96716.41
2023-01-09T20:33:57.544Z,96726.84
2023-01-09T20:37:45.178Z,96735.45
2023-01-09T20:41:33.051Z,96731.40
2023-01-09T20:45:13.397Z,96731.35
2023-01-09T20:48:49.097Z,96733.64
2023-01-09T20:52:13.862Z,96735.73
2023-01-09T20:56:01.536Z,96739.48
2023-01-09T20:59:20.479Z,96745.83
2023-01-09T21:03:08.265Z,96743.30
2023-01-09T21:06:56.069Z,96747.48
2023-01-09T21:10:43.856Z,96747.48
2023-01-09T21:14:32.764Z,96746.88
2023-01-09T21:18:16.435Z,96754.67
2023-01-09T21:33:17.838Z,96769.25
2023-01-09T21:36:50.099Z,96771.63
2023-01-09T21:40:22.216Z,96769.83
2023-01-09T21:43:50.257Z,96775.52
2023-01-09T21:55:35.477Z,96792.50
2023-01-09T21:59:24.640Z,96797.44
2023-01-09T22:03:02.734Z,96801.52
2023-01-09T22:06:53.438Z,96808.00
2023-01-09T22:22:32.354Z,96821.59
2023-01-09T22:26:21.967Z,96820.33
